sensor_id;sensor_type;location;lat;lon;timestamp;P1;durP1;ratioP1;P2;durP2;ratioP2
32321;SDS011;61553;48.994;8.940;2022-09-24T00:00:42;7.18;;;5.18;;
32321;SDS011;61553;48.994;8.940;2022-09-24T00:03:08;8.65;;;6.45;;
32321;SDS011;61553;48.994;8.940;2022-09-24T00:05:38;8.10;;;5.57;;
32321;SDS011;61553;48.994;8.940;2022-09-24T00:08:07;8.82;;;5.38;;
32321;SDS011;61553;48.994;8.940;2022-09-24T00:10:36;8.52;;;5.95;;
32321;SDS011;61553;48.994;8.940;2022-09-24T00:13:03;9.10;;;5.75;;
32321;SDS011;61553;48.994;8.940;2022-09-24T00:15:30;7.85;;;5.47;;
32321;SDS011;61553;48.994;8.940;2022-09-24T00:17:59;11.95;;;6.68;;
32321;SDS011;61553;48.994;8.940;2022-09-24T00:20:28;9.50;;;5.13;;
32321;SDS011;61553;48.994;8.940;2022-09-24T00:22:54;8.50;;;5.55;;
32321;SDS011;61553;48.994;8.940;2022-09-24T00:25:19;8.43;;;5.30;;
32321;SDS011;61553;48.994;8.940;2022-09-24T00:28:03;8.60;;;5.63;;
32321;SDS011;61553;48.994;8.940;2022-09-24T00:30:29;7.25;;;5.28;;
32321;SDS011;61553;48.994;8.940;2022-09-24T00:32:55;9.52;;;6.20;;
32321;SDS011;61553;48.994;8.940;2022-09-24T00:35:20;10.10;;;5.88;;
32321;SDS011;61553;48.994;8.940;2022-09-24T00:37:47;9.18;;;5.70;;
32321;SDS011;61553;48.994;8.940;2022-09-24T00:40:13;12.15;;;5.60;;
32321;SDS011;61553;48.994;8.940;2022-09-24T00:42:39;8.40;;;5.32;;
32321;SDS011;61553;48.994;8.940;2022-09-24T00:45:07;7.00;;;5.20;;
32321;SDS011;61553;48.994;8.940;2022-09-24T00:47:35;6.85;;;5.07;;
32321;SDS011;61553;48.994;8.940;2022-09-24T00:52:49;6.88;;;4.75;;
32321;SDS011;61553;48.994;8.940;2022-09-24T00:55:18;7.00;;;4.88;;
32321;SDS011;61553;48.994;8.940;2022-09-24T00:57:45;10.02;;;6.97;;
32321;SDS011;61553;48.994;8.940;2022-09-24T01:00:14;10.00;;;6.90;;
32321;SDS011;61553;48.994;8.940;2022-09-24T01:02:41;12.07;;;6.70;;
32321;SDS011;61553;48.994;8.940;2022-09-24T01:05:10;11.05;;;7.43;;
32321;SDS011;61553;48.994;8.940;2022-09-24T01:07:36;15.32;;;6.93;;
32321;SDS011;61553;48.994;8.940;2022-09-24T01:10:02;10.73;;;7.82;;
32321;SDS011;61553;48.994;8.940;2022-09-24T01:12:31;14.80;;;7.07;;
32321;SDS011;61553;48.994;8.940;2022-09-24T01:17:46;9.88;;;6.97;;
32321;SDS011;61553;48.994;8.940;2022-09-24T01:31:18;11.52;;;5.70;;
32321;SDS011;61553;48.994;8.940;2022-09-24T01:33:46;7.57;;;5.25;;
32321;SDS011;61553;48.994;8.940;2022-09-24T01:36:17;6.15;;;4.60;;
32321;SDS011;61553;48.994;8.940;2022-09-24T01:38:45;7.00;;;4.75;;
32321;SDS011;61553;48.994;8.940;2022-09-24T01:41:13;7.25;;;4.63;;
32321;SDS011;61553;48.994;8.940;2022-09-24T01:43:41;9.20;;;4.47;;
32321;SDS011;61553;48.994;8.940;2022-09-24T01:46:07;5.40;;;4.13;;
32321;SDS011;61553;48.994;8.940;2022-09-24T01:48:37;9.52;;;4.75;;
32321;SDS011;61553;48.994;8.940;2022-09-24T01:51:13;5.82;;;4.53;;
32321;SDS011;61553;48.994;8.940;2022-09-24T01:56:37;6.00;;;4.53;;
32321;SDS011;61553;48.994;8.940;2022-09-24T01:59:15;7.50;;;4.55;;
32321;SDS011;61553;48.994;8.940;2022-09-24T02:01:45;9.43;;;5.53;;
32321;SDS011;61553;48.994;8.940;2022-09-24T02:04:19;7.55;;;5.07;;
32321;SDS011;61553;48.994;8.940;2022-09-24T02:06:53;15.57;;;6.32;;
32321;SDS011;61553;48.994;8.940;2022-09-24T02:09:34;7.45;;;5.07;;
32321;SDS011;61553;48.994;8.940;2022-09-24T02:14:36;8.57;;;5.25;;
32321;SDS011;61553;48.994;8.940;2022-09-24T02:19:34;13.23;;;5.88;;
32321;SDS011;61553;48.994;8.940;2022-09-24T02:22:03;8.18;;;6.00;;
32321;SDS011;61553;48.994;8.940;2022-09-24T02:27:05;9.73;;;5.65;;
32321;SDS011;61553;48.994;8.940;2022-09-24T02:29:31;8.68;;;5.22;;
32321;SDS011;61553;48.994;8.940;2022-09-24T02:31:56;11.35;;;6.25;;
32321;SDS011;61553;48.994;8.940;2022-09-24T02:34:26;11.90;;;6.28;;
32321;SDS011;61553;48.994;8.940;2022-09-24T02:36:58;7.20;;;5.85;;
32321;SDS011;61553;48.994;8.940;2022-09-24T02:39:29;8.95;;;5.43;;
32321;SDS011;61553;48.994;8.940;2022-09-24T02:41:55;8.30;;;5.47;;
32321;SDS011;61553;48.994;8.940;2022-09-24T02:44:22;7.35;;;5.65;;
32321;SDS011;61553;48.994;8.940;2022-09-24T02:46:48;10.27;;;6.30;;
32321;SDS011;61553;48.994;8.940;2022-09-24T02:49:14;9.82;;;5.28;;
32321;SDS011;61553;48.994;8.940;2022-09-24T02:51:41;10.90;;;5.40;;
32321;SDS011;61553;48.994;8.940;2022-09-24T02:54:08;9.00;;;5.35;;
32321;SDS011;61553;48.994;8.940;2022-09-24T02:56:34;6.95;;;5.03;;
32321;SDS011;61553;48.994;8.940;2022-09-24T02:59:00;7.50;;;5.53;;
32321;SDS011;61553;48.994;8.940;2022-09-24T03:01:27;7.35;;;5.05;;
32321;SDS011;61553;48.994;8.940;2022-09-24T03:03:53;6.35;;;5.05;;
32321;SDS011;61553;48.994;8.940;2022-09-24T03:06:19;11.13;;;5.03;;
32321;SDS011;61553;48.994;8.940;2022-09-24T03:08:45;9.05;;;4.97;;
32321;SDS011;61553;48.994;8.940;2022-09-24T03:11:12;6.40;;;4.95;;
32321;SDS011;61553;48.994;8.940;2022-09-24T03:13:37;9.13;;;5.30;;
32321;SDS011;61553;48.994;8.940;2022-09-24T03:16:04;10.30;;;6.35;;
32321;SDS011;61553;48.994;8.940;2022-09-24T03:18:31;16.98;;;8.07;;
32321;SDS011;61553;48.994;8.940;2022-09-24T03:21:04;22.45;;;10.27;;
32321;SDS011;61553;48.994;8.940;2022-09-24T03:23:35;24.85;;;12.57;;
32321;SDS011;61553;48.994;8.940;2022-09-24T03:26:01;22.67;;;13.05;;
32321;SDS011;61553;48.994;8.940;2022-09-24T03:28:28;17.67;;;10.50;;
32321;SDS011;61553;48.994;8.940;2022-09-24T03:30:53;15.82;;;9.95;;
32321;SDS011;61553;48.994;8.940;2022-09-24T03:33:26;15.77;;;9.15;;
32321;SDS011;61553;48.994;8.940;2022-09-24T03:36:01;18.52;;;8.65;;
32321;SDS011;61553;48.994;8.940;2022-09-24T03:38:32;13.23;;;8.82;;
32321;SDS011;61553;48.994;8.940;2022-09-24T03:40:59;13.93;;;8.13;;
32321;SDS011;61553;48.994;8.940;2022-09-24T03:43:25;11.30;;;7.82;;
32321;SDS011;61553;48.994;8.940;2022-09-24T03:45:51;12.15;;;8.73;;
32321;SDS011;61553;48.994;8.940;2022-09-24T03:48:18;13.38;;;8.70;;
32321;SDS011;61553;48.994;8.940;2022-09-24T03:50:45;13.32;;;7.60;;
32321;SDS011;61553;48.994;8.940;2022-09-24T03:53:11;11.60;;;8.18;;
32321;SDS011;61553;48.994;8.940;2022-09-24T03:55:54;14.18;;;8.57;;
32321;SDS011;61553;48.994;8.940;2022-09-24T04:00:46;9.85;;;7.15;;
32321;SDS011;61553;48.994;8.940;2022-09-24T04:03:12;9.98;;;7.13;;
32321;SDS011;61553;48.994;8.940;2022-09-24T04:05:37;10.35;;;7.50;;
32321;SDS011;61553;48.994;8.940;2022-09-24T04:08:04;8.93;;;7.28;;
32321;SDS011;61553;48.994;8.940;2022-09-24T04:10:30;11.25;;;7.45;;
32321;SDS011;61553;48.994;8.940;2022-09-24T04:12:56;9.70;;;7.45;;
32321;SDS011;61553;48.994;8.940;2022-09-24T04:15:22;11.10;;;7.95;;
32321;SDS011;61553;48.994;8.940;2022-09-24T04:17:49;11.02;;;7.97;;
32321;SDS011;61553;48.994;8.940;2022-09-24T04:20:19;10.25;;;7.05;;
32321;SDS011;61553;48.994;8.940;2022-09-24T04:22:47;9.43;;;7.00;;
32321;SDS011;61553;48.994;8.940;2022-09-24T04:25:19;10.45;;;7.50;;
32321;SDS011;61553;48.994;8.940;2022-09-24T04:27:45;10.93;;;8.50;;
32321;SDS011;61553;48.994;8.940;2022-09-24T04:30:16;12.05;;;8.40;;
32321;SDS011;61553;48.994;8.940;2022-09-24T04:32:41;15.15;;;8.18;;
32321;SDS011;61553;48.994;8.940;2022-09-24T04:35:07;11.95;;;8.52;;
32321;SDS011;61553;48.994;8.940;2022-09-24T04:37:34;11.23;;;7.45;;
32321;SDS011;61553;48.994;8.940;2022-09-24T04:40:01;12.65;;;8.20;;
32321;SDS011;61553;48.994;8.940;2022-09-24T04:42:36;10.50;;;8.40;;
32321;SDS011;61553;48.994;8.940;2022-09-24T04:45:03;16.17;;;9.15;;
32321;SDS011;61553;48.994;8.940;2022-09-24T04:47:30;12.90;;;8.63;;
32321;SDS011;61553;48.994;8.940;2022-09-24T04:49:55;13.73;;;8.60;;
32321;SDS011;61553;48.994;8.940;2022-09-24T04:52:21;13.75;;;8.85;;
32321;SDS011;61553;48.994;8.940;2022-09-24T04:54:50;11.98;;;8.82;;
32321;SDS011;61553;48.994;8.940;2022-09-24T04:57:16;11.82;;;8.23;;
32321;SDS011;61553;48.994;8.940;2022-09-24T04:59:42;13.50;;;8.70;;
32321;SDS011;61553;48.994;8.940;2022-09-24T05:02:08;14.52;;;9.18;;
32321;SDS011;61553;48.994;8.940;2022-09-24T05:04:34;15.85;;;9.02;;
32321;SDS011;61553;48.994;8.940;2022-09-24T05:07:01;12.25;;;9.65;;
32321;SDS011;61553;48.994;8.940;2022-09-24T05:09:27;15.93;;;8.40;;
32321;SDS011;61553;48.994;8.940;2022-09-24T05:11:54;10.65;;;7.95;;
32321;SDS011;61553;48.994;8.940;2022-09-24T05:14:19;10.80;;;7.72;;
32321;SDS011;61553;48.994;8.940;2022-09-24T05:16:45;13.05;;;7.75;;
32321;SDS011;61553;48.994;8.940;2022-09-24T05:19:10;10.63;;;6.32;;
32321;SDS011;61553;48.994;8.940;2022-09-24T05:21:36;14.48;;;7.60;;
32321;SDS011;61553;48.994;8.940;2022-09-24T05:24:02;9.30;;;6.97;;
32321;SDS011;61553;48.994;8.940;2022-09-24T05:26:27;10.57;;;6.70;;
32321;SDS011;61553;48.994;8.940;2022-09-24T05:29:11;10.15;;;6.18;;
32321;SDS011;61553;48.994;8.940;2022-09-24T05:31:37;10.85;;;6.72;;
32321;SDS011;61553;48.994;8.940;2022-09-24T05:34:03;13.48;;;8.07;;
32321;SDS011;61553;48.994;8.940;2022-09-24T05:36:29;11.10;;;6.80;;
32321;SDS011;61553;48.994;8.940;2022-09-24T05:38:55;10.82;;;7.03;;
32321;SDS011;61553;48.994;8.940;2022-09-24T05:41:21;11.63;;;7.80;;
32321;SDS011;61553;48.994;8.940;2022-09-24T05:43:47;10.00;;;7.80;;
32321;SDS011;61553;48.994;8.940;2022-09-24T05:46:13;10.00;;;7.47;;
32321;SDS011;61553;48.994;8.940;2022-09-24T05:48:39;12.02;;;7.82;;
32321;SDS011;61553;48.994;8.940;2022-09-24T05:51:05;12.32;;;8.77;;
32321;SDS011;61553;48.994;8.940;2022-09-24T05:53:31;12.07;;;9.15;;
32321;SDS011;61553;48.994;8.940;2022-09-24T05:55:57;14.57;;;9.38;;
32321;SDS011;61553;48.994;8.940;2022-09-24T05:58:23;15.00;;;9.48;;
32321;SDS011;61553;48.994;8.940;2022-09-24T06:00:49;13.20;;;9.55;;
32321;SDS011;61553;48.994;8.940;2022-09-24T06:03:15;14.15;;;9.60;;
32321;SDS011;61553;48.994;8.940;2022-09-24T06:05:43;12.55;;;9.38;;
32321;SDS011;61553;48.994;8.940;2022-09-24T06:08:10;15.35;;;9.10;;
32321;SDS011;61553;48.994;8.940;2022-09-24T06:10:36;14.30;;;8.73;;
32321;SDS011;61553;48.994;8.940;2022-09-24T06:13:02;14.38;;;8.55;;
32321;SDS011;61553;48.994;8.940;2022-09-24T06:15:28;14.40;;;9.15;;
32321;SDS011;61553;48.994;8.940;2022-09-24T06:17:54;12.23;;;9.93;;
32321;SDS011;61553;48.994;8.940;2022-09-24T06:20:21;18.23;;;12.40;;
32321;SDS011;61553;48.994;8.940;2022-09-24T06:22:47;14.85;;;11.50;;
32321;SDS011;61553;48.994;8.940;2022-09-24T06:25:13;15.63;;;9.85;;
32321;SDS011;61553;48.994;8.940;2022-09-24T06:27:39;13.45;;;9.63;;
32321;SDS011;61553;48.994;8.940;2022-09-24T06:30:04;13.38;;;9.10;;
32321;SDS011;61553;48.994;8.940;2022-09-24T06:32:31;11.52;;;8.70;;
32321;SDS011;61553;48.994;8.940;2022-09-24T06:34:56;16.67;;;9.98;;
32321;SDS011;61553;48.994;8.940;2022-09-24T06:37:22;12.55;;;9.32;;
32321;SDS011;61553;48.994;8.940;2022-09-24T06:39:48;11.48;;;8.75;;
32321;SDS011;61553;48.994;8.940;2022-09-24T06:42:13;13.50;;;9.02;;
32321;SDS011;61553;48.994;8.940;2022-09-24T06:44:39;12.40;;;9.02;;
32321;SDS011;61553;48.994;8.940;2022-09-24T06:47:06;13.80;;;9.00;;
32321;SDS011;61553;48.994;8.940;2022-09-24T06:49:31;13.43;;;8.07;;
32321;SDS011;61553;48.994;8.940;2022-09-24T06:51:57;13.57;;;8.38;;
32321;SDS011;61553;48.994;8.940;2022-09-24T06:54:23;13.45;;;7.97;;
32321;SDS011;61553;48.994;8.940;2022-09-24T06:56:49;13.60;;;8.15;;
32321;SDS011;61553;48.994;8.940;2022-09-24T06:59:16;12.27;;;7.97;;
32321;SDS011;61553;48.994;8.940;2022-09-24T07:01:42;15.05;;;8.13;;
32321;SDS011;61553;48.994;8.940;2022-09-24T07:04:08;14.80;;;8.15;;
32321;SDS011;61553;48.994;8.940;2022-09-24T07:06:35;12.05;;;9.95;;
32321;SDS011;61553;48.994;8.940;2022-09-24T07:09:20;15.05;;;9.85;;
32321;SDS011;61553;48.994;8.940;2022-09-24T07:11:46;12.13;;;9.10;;
32321;SDS011;61553;48.994;8.940;2022-09-24T07:14:12;12.25;;;8.98;;
32321;SDS011;61553;48.994;8.940;2022-09-24T07:16:38;12.88;;;8.45;;
32321;SDS011;61553;48.994;8.940;2022-09-24T07:19:04;14.52;;;9.48;;
32321;SDS011;61553;48.994;8.940;2022-09-24T07:21:29;13.15;;;9.23;;
32321;SDS011;61553;48.994;8.940;2022-09-24T07:23:55;11.18;;;7.93;;
32321;SDS011;61553;48.994;8.940;2022-09-24T07:26:21;12.57;;;8.52;;
32321;SDS011;61553;48.994;8.940;2022-09-24T07:28:46;12.05;;;8.90;;
32321;SDS011;61553;48.994;8.940;2022-09-24T07:31:12;12.00;;;9.10;;
32321;SDS011;61553;48.994;8.940;2022-09-24T07:33:38;10.73;;;8.10;;
32321;SDS011;61553;48.994;8.940;2022-09-24T07:36:04;15.60;;;8.90;;
32321;SDS011;61553;48.994;8.940;2022-09-24T07:38:33;12.48;;;9.85;;
32321;SDS011;61553;48.994;8.940;2022-09-24T07:41:00;14.18;;;9.05;;
32321;SDS011;61553;48.994;8.940;2022-09-24T07:43:30;12.15;;;9.10;;
32321;SDS011;61553;48.994;8.940;2022-09-24T07:45:57;16.08;;;10.48;;
32321;SDS011;61553;48.994;8.940;2022-09-24T07:48:23;13.23;;;9.30;;
32321;SDS011;61553;48.994;8.940;2022-09-24T07:50:48;12.00;;;9.13;;
32321;SDS011;61553;48.994;8.940;2022-09-24T07:53:15;12.25;;;9.32;;
32321;SDS011;61553;48.994;8.940;2022-09-24T07:55:41;13.48;;;9.30;;
32321;SDS011;61553;48.994;8.940;2022-09-24T07:58:07;12.02;;;8.85;;
32321;SDS011;61553;48.994;8.940;2022-09-24T08:00:36;15.55;;;9.98;;
32321;SDS011;61553;48.994;8.940;2022-09-24T08:03:02;14.38;;;9.45;;
32321;SDS011;61553;48.994;8.940;2022-09-24T08:05:29;16.55;;;11.45;;
32321;SDS011;61553;48.994;8.940;2022-09-24T08:07:55;13.88;;;11.20;;
32321;SDS011;61553;48.994;8.940;2022-09-24T08:10:21;16.17;;;10.52;;
32321;SDS011;61553;48.994;8.940;2022-09-24T08:12:48;16.88;;;10.63;;
32321;SDS011;61553;48.994;8.940;2022-09-24T08:15:14;15.63;;;10.75;;
32321;SDS011;61553;48.994;8.940;2022-09-24T08:17:43;13.00;;;10.18;;
32321;SDS011;61553;48.994;8.940;2022-09-24T08:20:08;16.98;;;10.32;;
32321;SDS011;61553;48.994;8.940;2022-09-24T08:22:34;13.45;;;10.05;;
32321;SDS011;61553;48.994;8.940;2022-09-24T08:25:00;16.85;;;11.05;;
32321;SDS011;61553;48.994;8.940;2022-09-24T08:27:28;12.98;;;10.38;;
32321;SDS011;61553;48.994;8.940;2022-09-24T08:29:54;19.70;;;13.65;;
32321;SDS011;61553;48.994;8.940;2022-09-24T08:32:21;22.10;;;13.07;;
32321;SDS011;61553;48.994;8.940;2022-09-24T08:34:47;19.30;;;12.90;;
32321;SDS011;61553;48.994;8.940;2022-09-24T08:37:13;21.05;;;12.77;;
32321;SDS011;61553;48.994;8.940;2022-09-24T08:39:38;15.60;;;11.57;;
32321;SDS011;61553;48.994;8.940;2022-09-24T08:42:24;16.13;;;12.30;;
32321;SDS011;61553;48.994;8.940;2022-09-24T08:44:56;18.30;;;12.70;;
32321;SDS011;61553;48.994;8.940;2022-09-24T08:53:04;16.30;;;10.63;;
32321;SDS011;61553;48.994;8.940;2022-09-24T08:55:44;17.42;;;11.90;;
32321;SDS011;61553;48.994;8.940;2022-09-24T08:58:22;17.75;;;13.20;;
32321;SDS011;61553;48.994;8.940;2022-09-24T09:03:35;15.07;;;11.30;;
32321;SDS011;61553;48.994;8.940;2022-09-24T09:11:28;17.13;;;13.05;;
32321;SDS011;61553;48.994;8.940;2022-09-24T09:14:00;19.05;;;13.85;;
32321;SDS011;61553;48.994;8.940;2022-09-24T09:19:12;16.23;;;11.55;;
32321;SDS011;61553;48.994;8.940;2022-09-24T09:21:40;16.85;;;11.82;;
32321;SDS011;61553;48.994;8.940;2022-09-24T09:24:17;16.08;;;11.57;;
32321;SDS011;61553;48.994;8.940;2022-09-24T09:26:47;18.77;;;11.38;;
32321;SDS011;61553;48.994;8.940;2022-09-24T09:29:15;20.88;;;11.90;;
32321;SDS011;61553;48.994;8.940;2022-09-24T09:31:48;16.38;;;12.93;;
32321;SDS011;61553;48.994;8.940;2022-09-24T09:37:28;16.38;;;13.07;;
32321;SDS011;61553;48.994;8.940;2022-09-24T09:42:47;40.35;;;20.38;;
32321;SDS011;61553;48.994;8.940;2022-09-24T09:55:49;16.25;;;12.40;;
32321;SDS011;61553;48.994;8.940;2022-09-24T09:58:18;12.38;;;10.52;;
32321;SDS011;61553;48.994;8.940;2022-09-24T10:00:47;12.75;;;10.70;;
32321;SDS011;61553;48.994;8.940;2022-09-24T10:03:20;12.85;;;9.38;;
32321;SDS011;61553;48.994;8.940;2022-09-24T10:05:58;15.50;;;9.88;;
32321;SDS011;61553;48.994;8.940;2022-09-24T10:08:29;11.88;;;8.48;;
32321;SDS011;61553;48.994;8.940;2022-09-24T10:10:56;16.23;;;11.00;;
32321;SDS011;61553;48.994;8.940;2022-09-24T10:13:23;14.10;;;10.82;;
32321;SDS011;61553;48.994;8.940;2022-09-24T10:15:54;24.35;;;15.45;;
32321;SDS011;61553;48.994;8.940;2022-09-24T10:21:12;22.15;;;14.52;;
32321;SDS011;61553;48.994;8.940;2022-09-24T10:23:49;12.70;;;10.25;;
32321;SDS011;61553;48.994;8.940;2022-09-24T10:26:15;19.25;;;13.10;;
32321;SDS011;61553;48.994;8.940;2022-09-24T10:28:44;13.85;;;11.60;;
32321;SDS011;61553;48.994;8.940;2022-09-24T10:31:31;15.07;;;7.82;;
32321;SDS011;61553;48.994;8.940;2022-09-24T10:34:00;12.27;;;7.97;;
32321;SDS011;61553;48.994;8.940;2022-09-24T10:36:27;11.50;;;7.95;;
32321;SDS011;61553;48.994;8.940;2022-09-24T10:41:31;14.25;;;7.88;;
32321;SDS011;61553;48.994;8.940;2022-09-24T10:44:00;11.20;;;7.60;;
32321;SDS011;61553;48.994;8.940;2022-09-24T10:49:28;11.52;;;6.80;;
32321;SDS011;61553;48.994;8.940;2022-09-24T10:52:34;10.18;;;7.00;;
32321;SDS011;61553;48.994;8.940;2022-09-24T11:09:19;10.05;;;6.82;;
32321;SDS011;61553;48.994;8.940;2022-09-24T11:12:08;11.05;;;6.95;;
32321;SDS011;61553;48.994;8.940;2022-09-24T11:20:33;10.75;;;6.80;;
32321;SDS011;61553;48.994;8.940;2022-09-24T11:36:54;34.78;;;26.27;;
32321;SDS011;61553;48.994;8.940;2022-09-24T11:40:21;14.05;;;9.80;;
32321;SDS011;61553;48.994;8.940;2022-09-24T11:45:44;20.45;;;15.48;;
32321;SDS011;61553;48.994;8.940;2022-09-24T11:53:42;29.17;;;21.65;;
32321;SDS011;61553;48.994;8.940;2022-09-24T11:56:27;18.13;;;11.98;;
32321;SDS011;61553;48.994;8.940;2022-09-24T11:58:56;18.35;;;11.40;;
32321;SDS011;61553;48.994;8.940;2022-09-24T12:01:38;17.65;;;11.93;;
32321;SDS011;61553;48.994;8.940;2022-09-24T12:04:15;12.98;;;10.13;;
32321;SDS011;61553;48.994;8.940;2022-09-24T12:06:53;15.00;;;10.48;;
32321;SDS011;61553;48.994;8.940;2022-09-24T12:12:06;16.40;;;10.90;;
32321;SDS011;61553;48.994;8.940;2022-09-24T12:17:16;16.75;;;13.25;;
32321;SDS011;61553;48.994;8.940;2022-09-24T12:20:14;15.75;;;10.60;;
32321;SDS011;61553;48.994;8.940;2022-09-24T12:22:42;14.77;;;10.43;;
32321;SDS011;61553;48.994;8.940;2022-09-24T12:25:11;13.73;;;10.70;;
32321;SDS011;61553;48.994;8.940;2022-09-24T12:27:37;16.20;;;12.95;;
32321;SDS011;61553;48.994;8.940;2022-09-24T12:33:13;31.17;;;23.85;;
32321;SDS011;61553;48.994;8.940;2022-09-24T12:36:04;23.15;;;14.05;;
32321;SDS011;61553;48.994;8.940;2022-09-24T12:38:35;25.92;;;16.92;;
32321;SDS011;61553;48.994;8.940;2022-09-24T12:46:04;16.35;;;10.77;;
32321;SDS011;61553;48.994;8.940;2022-09-24T12:48:34;16.58;;;11.75;;
32321;SDS011;61553;48.994;8.940;2022-09-24T12:51:03;15.35;;;11.93;;
32321;SDS011;61553;48.994;8.940;2022-09-24T12:53:34;16.20;;;12.55;;
32321;SDS011;61553;48.994;8.940;2022-09-24T12:56:03;20.60;;;15.60;;
32321;SDS011;61553;48.994;8.940;2022-09-24T13:01:05;15.80;;;10.32;;
32321;SDS011;61553;48.994;8.940;2022-09-24T13:04:23;15.52;;;10.02;;
32321;SDS011;61553;48.994;8.940;2022-09-24T13:06:51;15.80;;;10.48;;
32321;SDS011;61553;48.994;8.940;2022-09-24T13:09:22;11.63;;;9.70;;
32321;SDS011;61553;48.994;8.940;2022-09-24T13:14:46;11.82;;;9.63;;
32321;SDS011;61553;48.994;8.940;2022-09-24T13:17:13;14.87;;;10.50;;
32321;SDS011;61553;48.994;8.940;2022-09-24T13:19:43;12.60;;;10.55;;
32321;SDS011;61553;48.994;8.940;2022-09-24T13:22:21;13.02;;;10.52;;
32321;SDS011;61553;48.994;8.940;2022-09-24T13:25:07;11.90;;;10.07;;
32321;SDS011;61553;48.994;8.940;2022-09-24T13:27:38;14.95;;;10.77;;
32321;SDS011;61553;48.994;8.940;2022-09-24T13:30:20;16.85;;;11.65;;
32321;SDS011;61553;48.994;8.940;2022-09-24T13:32:56;20.60;;;15.07;;
32321;SDS011;61553;48.994;8.940;2022-09-24T13:35:28;15.15;;;11.45;;
32321;SDS011;61553;48.994;8.940;2022-09-24T13:38:02;20.35;;;12.18;;
32321;SDS011;61553;48.994;8.940;2022-09-24T13:40:34;18.67;;;13.63;;
32321;SDS011;61553;48.994;8.940;2022-09-24T13:43:13;17.23;;;13.00;;
32321;SDS011;61553;48.994;8.940;2022-09-24T13:45:59;17.20;;;11.82;;
32321;SDS011;61553;48.994;8.940;2022-09-24T13:48:29;16.73;;;12.88;;
32321;SDS011;61553;48.994;8.940;2022-09-24T13:50:57;16.55;;;12.07;;
32321;SDS011;61553;48.994;8.940;2022-09-24T13:53:30;17.50;;;12.07;;
32321;SDS011;61553;48.994;8.940;2022-09-24T13:56:02;15.07;;;10.45;;
32321;SDS011;61553;48.994;8.940;2022-09-24T13:58:36;15.05;;;11.18;;
32321;SDS011;61553;48.994;8.940;2022-09-24T14:01:04;14.68;;;10.48;;
32321;SDS011;61553;48.994;8.940;2022-09-24T14:03:56;17.60;;;11.48;;
32321;SDS011;61553;48.994;8.940;2022-09-24T14:06:38;16.35;;;10.63;;
32321;SDS011;61553;48.994;8.940;2022-09-24T14:11:51;18.42;;;11.65;;
32321;SDS011;61553;48.994;8.940;2022-09-24T14:14:19;16.80;;;12.98;;
32321;SDS011;61553;48.994;8.940;2022-09-24T14:16:49;15.18;;;12.38;;
32321;SDS011;61553;48.994;8.940;2022-09-24T14:19:18;16.42;;;12.35;;
32321;SDS011;61553;48.994;8.940;2022-09-24T14:21:46;15.95;;;11.20;;
32321;SDS011;61553;48.994;8.940;2022-09-24T14:29:31;17.35;;;12.40;;
32321;SDS011;61553;48.994;8.940;2022-09-24T14:31:59;16.27;;;12.27;;
32321;SDS011;61553;48.994;8.940;2022-09-24T14:37:09;17.85;;;12.30;;
32321;SDS011;61553;48.994;8.940;2022-09-24T14:39:41;16.60;;;13.05;;
32321;SDS011;61553;48.994;8.940;2022-09-24T14:42:10;14.02;;;11.88;;
32321;SDS011;61553;48.994;8.940;2022-09-24T14:44:39;13.38;;;11.32;;
32321;SDS011;61553;48.994;8.940;2022-09-24T14:47:27;13.60;;;10.80;;
32321;SDS011;61553;48.994;8.940;2022-09-24T14:49:55;16.77;;;10.25;;
32321;SDS011;61553;48.994;8.940;2022-09-24T14:52:34;15.13;;;10.35;;
32321;SDS011;61553;48.994;8.940;2022-09-24T14:57:35;11.25;;;9.35;;
32321;SDS011;61553;48.994;8.940;2022-09-24T15:00:02;12.18;;;9.88;;
32321;SDS011;61553;48.994;8.940;2022-09-24T15:03:11;16.77;;;10.60;;
32321;SDS011;61553;48.994;8.940;2022-09-24T15:05:39;14.90;;;10.38;;
32321;SDS011;61553;48.994;8.940;2022-09-24T15:10:50;13.57;;;10.98;;
32321;SDS011;61553;48.994;8.940;2022-09-24T15:13:24;12.27;;;9.63;;
32321;SDS011;61553;48.994;8.940;2022-09-24T15:16:00;11.75;;;9.25;;
32321;SDS011;61553;48.994;8.940;2022-09-24T15:19:28;12.73;;;9.88;;
32321;SDS011;61553;48.994;8.940;2022-09-24T15:21:37;11.50;;;8.75;;
32321;SDS011;61553;48.994;8.940;2022-09-24T15:24:03;14.80;;;10.07;;
32321;SDS011;61553;48.994;8.940;2022-09-24T15:26:29;14.55;;;10.80;;
32321;SDS011;61553;48.994;8.940;2022-09-24T15:28:58;13.52;;;10.18;;
32321;SDS011;61553;48.994;8.940;2022-09-24T15:31:25;17.17;;;12.32;;
32321;SDS011;61553;48.994;8.940;2022-09-24T15:33:51;15.68;;;10.65;;
32321;SDS011;61553;48.994;8.940;2022-09-24T15:36:16;14.73;;;10.65;;
32321;SDS011;61553;48.994;8.940;2022-09-24T15:38:45;14.07;;;10.50;;
32321;SDS011;61553;48.994;8.940;2022-09-24T15:41:13;16.73;;;11.65;;
32321;SDS011;61553;48.994;8.940;2022-09-24T15:43:39;16.10;;;11.70;;
32321;SDS011;61553;48.994;8.940;2022-09-24T15:46:05;17.45;;;12.43;;
32321;SDS011;61553;48.994;8.940;2022-09-24T15:48:30;22.80;;;14.50;;
32321;SDS011;61553;48.994;8.940;2022-09-24T15:50:56;24.48;;;15.80;;
32321;SDS011;61553;48.994;8.940;2022-09-24T15:53:25;19.50;;;13.50;;
32321;SDS011;61553;48.994;8.940;2022-09-24T15:56:00;16.10;;;12.07;;
32321;SDS011;61553;48.994;8.940;2022-09-24T15:58:27;14.52;;;11.88;;
32321;SDS011;61553;48.994;8.940;2022-09-24T16:00:53;15.45;;;12.57;;
32321;SDS011;61553;48.994;8.940;2022-09-24T16:03:24;20.35;;;13.23;;
32321;SDS011;61553;48.994;8.940;2022-09-24T16:05:51;16.75;;;12.85;;
32321;SDS011;61553;48.994;8.940;2022-09-24T16:08:17;17.58;;;13.88;;
32321;SDS011;61553;48.994;8.940;2022-09-24T16:10:43;17.67;;;13.38;;
32321;SDS011;61553;48.994;8.940;2022-09-24T16:13:10;22.30;;;15.27;;
32321;SDS011;61553;48.994;8.940;2022-09-24T16:15:36;19.48;;;16.52;;
32321;SDS011;61553;48.994;8.940;2022-09-24T16:18:02;20.17;;;13.98;;
32321;SDS011;61553;48.994;8.940;2022-09-24T16:20:28;16.10;;;14.02;;
32321;SDS011;61553;48.994;8.940;2022-09-24T16:22:54;17.58;;;14.45;;
32321;SDS011;61553;48.994;8.940;2022-09-24T16:25:19;18.45;;;14.32;;
32321;SDS011;61553;48.994;8.940;2022-09-24T16:27:45;18.42;;;15.15;;
32321;SDS011;61553;48.994;8.940;2022-09-24T16:30:11;19.75;;;15.13;;
32321;SDS011;61553;48.994;8.940;2022-09-24T16:32:37;19.33;;;15.32;;
32321;SDS011;61553;48.994;8.940;2022-09-24T16:35:02;19.75;;;16.08;;
32321;SDS011;61553;48.994;8.940;2022-09-24T16:37:28;18.48;;;14.57;;
32321;SDS011;61553;48.994;8.940;2022-09-24T16:39:54;23.45;;;16.42;;
32321;SDS011;61553;48.994;8.940;2022-09-24T16:42:20;19.20;;;15.15;;
32321;SDS011;61553;48.994;8.940;2022-09-24T16:44:45;19.13;;;14.73;;
32321;SDS011;61553;48.994;8.940;2022-09-24T16:47:11;19.73;;;16.42;;
32321;SDS011;61553;48.994;8.940;2022-09-24T16:49:40;21.17;;;16.80;;
32321;SDS011;61553;48.994;8.940;2022-09-24T16:52:06;24.15;;;16.15;;
32321;SDS011;61553;48.994;8.940;2022-09-24T16:54:32;24.70;;;18.27;;
32321;SDS011;61553;48.994;8.940;2022-09-24T16:56:57;21.15;;;17.23;;
32321;SDS011;61553;48.994;8.940;2022-09-24T16:59:23;19.38;;;16.23;;
32321;SDS011;61553;48.994;8.940;2022-09-24T17:01:49;33.40;;;24.75;;
32321;SDS011;61553;48.994;8.940;2022-09-24T17:04:14;30.85;;;23.88;;
32321;SDS011;61553;48.994;8.940;2022-09-24T17:06:40;27.20;;;23.38;;
32321;SDS011;61553;48.994;8.940;2022-09-24T17:09:09;27.23;;;21.60;;
32321;SDS011;61553;48.994;8.940;2022-09-24T17:11:53;29.73;;;21.90;;